Time;durP1;ratioP1;P1;durP2;ratioP2;P2;SDS_P1;SDS_P2;PMS_P1;PMS_P2;Temp;Humidity;BMP_temperature;BMP_pressure;BME280_temperature;BME280_humidity;BME280_pressure;Samples;Min_cycle;Max_cycle;Signal;HPM_P1;HPM_P2
2023/03/19 00:02:05;;;;;;;15.60;15.10;;;21.10;56.50;;;;;;5051411;28;20584;-55
2023/03/19 00:04:32;;;;;;;15.50;15.00;;;21.20;56.50;;;;;;5051466;28;20448;-54
2023/03/19 00:06:59;;;;;;;15.00;14.50;;;21.10;56.50;;;;;;5051081;28;20541;-55
2023/03/19 00:09:26;;;;;;;15.87;15.27;;;21.10;56.60;;;;;;5051307;28;20881;-55
2023/03/19 00:11:55;;;;;;;14.60;14.10;;;21.10;56.60;;;;;;5051157;28;20456;-54
2023/03/19 00:14:22;;;;;;;14.90;14.50;;;21.10;56.50;;;;;;5051333;28;20945;-56
2023/03/19 00:16:49;;;;;;;14.67;14.17;;;21.10;56.50;;;;;;5051438;28;20535;-55
2023/03/19 00:19:16;;;;;;;14.53;13.93;;;21.10;56.50;;;;;;5051631;28;20866;-55
2023/03/19 00:21:43;;;;;;;14.50;14.00;;;21.10;56.40;;;;;;5055490;28;21027;-57
2023/03/19 00:24:10;;;;;;;14.60;14.10;;;21.10;56.50;;;;;;5055661;28;21013;-61
2023/03/19 00:26:37;;;;;;;14.53;14.13;;;21.10;56.50;;;;;;5055294;28;20460;-57
2023/03/19 00:29:07;;;;;;;15.00;14.50;;;21.10;56.50;;;;;;5054845;28;20527;-57
2023/03/19 00:31:34;;;;;;;15.20;14.70;;;21.10;56.60;;;;;;5055236;28;20444;-55
2023/03/19 00:34:02;;;;;;;15.30;14.70;;;21.10;56.60;;;;;;5055269;28;20458;-53
2023/03/19 00:36:29;;;;;;;14.90;14.40;;;21.10;56.50;;;;;;5054989;28;20482;-56
2023/03/19 00:38:56;;;;;;;14.57;14.17;;;21.10;56.50;;;;;;5054742;28;20481;-57
2023/03/19 00:41:24;;;;;;;15.47;14.97;;;21.10;56.60;;;;;;5054837;28;20571;-55
2023/03/19 00:43:53;;;;;;;15.20;14.60;;;21.10;56.60;;;;;;5054857;28;20483;-53
2023/03/19 00:46:22;;;;;;;15.37;14.77;;;21.10;56.50;;;;;;5054881;28;20809;-55
2023/03/19 00:48:50;;;;;;;14.83;14.33;;;21.10;56.50;;;;;;5054739;28;20475;-54
2023/03/19 00:51:17;;;;;;;14.50;13.90;;;21.00;56.50;;;;;;5054741;28;20444;-56
2023/03/19 00:53:44;;;;;;;14.20;13.80;;;21.00;56.50;;;;;;5054627;28;20506;-53
2023/03/19 00:56:13;;;;;;;14.77;14.27;;;21.00;56.40;;;;;;5054453;28;20540;-57
2023/03/19 00:58:40;;;;;;;14.70;14.10;;;21.00;56.50;;;;;;5054459;28;20479;-56
2023/03/19 01:01:08;;;;;;;14.33;13.83;;;21.00;56.50;;;;;;5054611;28;20537;-55
2023/03/19 01:03:36;;;;;;;14.00;13.60;;;21.10;56.70;;;;;;5054560;28;20464;-59
2023/03/19 01:06:03;;;;;;;14.60;14.20;;;21.00;56.50;;;;;;5053931;28;20479;-58
2023/03/19 01:08:30;;;;;;;14.63;14.20;;;21.00;56.60;;;;;;5053945;28;20958;-55
2023/03/19 01:11:04;;;;;;;14.57;13.97;;;21.00;56.50;;;;;;5054518;28;20520;-57
2023/03/19 01:13:31;;;;;;;14.40;13.90;;;21.00;56.60;;;;;;5054406;28;20472;-54
2023/03/19 01:15:58;;;;;;;15.00;14.50;;;21.00;56.50;;;;;;5054339;28;20511;-57
2023/03/19 01:18:24;;;;;;;14.60;14.10;;;21.00;56.50;;;;;;5054123;28;20479;-56
2023/03/19 01:20:53;;;;;;;15.30;14.70;;;21.00;56.60;;;;;;5054379;28;20567;-55
2023/03/19 01:23:20;;;;;;;14.47;13.97;;;21.00;56.50;;;;;;5053933;28;20555;-56
2023/03/19 01:25:47;;;;;;;14.90;14.40;;;21.00;57.10;;;;;;5054169;28;20535;-56
2023/03/19 01:28:13;;;;;;;14.63;14.13;;;21.00;56.50;;;;;;5053911;28;20799;-54
2023/03/19 01:30:40;;;;;;;14.40;14.00;;;21.00;56.60;;;;;;5053663;28;20506;-55
2023/03/19 01:33:07;;;;;;;14.63;14.23;;;21.00;56.60;;;;;;5053821;28;20464;-56
2023/03/19 01:35:34;;;;;;;14.40;13.90;;;21.00;56.60;;;;;;5054156;28;21098;-54
2023/03/19 01:38:03;;;;;;;13.80;13.40;;;20.90;56.50;;;;;;5053743;28;20484;-53
2023/03/19 01:40:30;;;;;;;14.77;14.27;;;21.00;57.20;;;;;;5053896;28;20791;-55
2023/03/19 01:43:12;;;;;;;13.97;13.57;;;20.90;56.50;;;;;;5053326;28;20988;-54
2023/03/19 01:45:41;;;;;;;13.90;13.40;;;21.00;56.70;;;;;;5053871;28;20495;-55
2023/03/19 01:48:19;;;;;;;14.43;13.83;;;20.90;56.60;;;;;;5053618;28;20539;-55
2023/03/19 01:50:49;;;;;;;14.40;14.00;;;20.90;56.60;;;;;;5053904;28;20523;-57
2023/03/19 01:53:20;;;;;;;14.40;14.00;;;20.90;56.60;;;;;;5053781;28;20491;-55
2023/03/19 01:55:47;;;;;;;15.33;14.83;;;20.90;56.60;;;;;;5054633;28;20444;-52
2023/03/19 01:58:14;;;;;;;14.53;14.13;;;20.90;56.50;;;;;;5053641;28;20471;-50
2023/03/19 02:00:42;;;;;;;14.60;14.03;;;20.90;56.60;;;;;;5053772;28;20503;-54
2023/03/19 02:03:09;;;;;;;14.83;14.33;;;20.90;56.50;;;;;;5053354;28;20895;-50
2023/03/19 02:05:38;;;;;;;14.47;14.00;;;20.90;56.50;;;;;;5054076;28;20941;-52
2023/03/19 02:08:08;;;;;;;15.27;14.77;;;20.90;56.60;;;;;;5053550;28;20549;-50
2023/03/19 02:10:37;;;;;;;14.50;14.00;;;20.90;56.70;;;;;;5053975;28;20531;-50
2023/03/19 02:13:05;;;;;;;13.97;13.57;;;20.90;56.60;;;;;;5053232;28;20516;-50
2023/03/19 02:15:32;;;;;;;13.70;13.40;;;20.90;56.60;;;;;;5053483;28;20531;-54
2023/03/19 02:17:59;;;;;;;13.60;13.10;;;20.90;56.60;;;;;;5053461;28;20527;-51
2023/03/19 02:20:30;;;;;;;13.70;13.20;;;20.90;56.60;;;;;;5053239;28;20888;-56
2023/03/19 02:23:06;;;;;;;13.83;13.33;;;20.90;56.50;;;;;;5053230;28;20547;-50
2023/03/19 02:25:40;;;;;;;14.00;13.60;;;20.80;56.50;;;;;;5053301;28;20476;-51
2023/03/19 02:28:09;;;;;;;14.20;13.80;;;20.80;56.50;;;;;;5053402;28;20813;-50
2023/03/19 02:30:37;;;;;;;13.73;13.33;;;20.90;56.60;;;;;;5052954;28;20445;-52
2023/03/19 02:33:05;;;;;;;13.70;13.30;;;20.90;56.60;;;;;;5052709;28;20543;-54
2023/03/19 02:35:34;;;;;;;13.70;13.30;;;20.90;56.60;;;;;;5053121;28;20447;-50
2023/03/19 02:38:03;;;;;;;13.60;13.20;;;20.80;56.60;;;;;;5052804;28;21068;-52
2023/03/19 02:40:34;;;;;;;14.23;13.83;;;20.80;56.60;;;;;;5052657;28;20531;-50
2023/03/19 02:43:01;;;;;;;14.00;13.13;;;20.80;56.60;;;;;;5051606;28;20568;-51
2023/03/19 02:45:31;;;;;;;14.37;13.77;;;20.80;56.50;;;;;;5052910;28;20898;-55
2023/03/19 02:47:58;;;;;;;13.87;13.47;;;20.80;56.60;;;;;;5052581;28;20930;-50
2023/03/19 02:50:26;;;;;;;13.70;13.30;;;20.80;56.60;;;;;;5052518;28;20870;-51
2023/03/19 02:52:53;;;;;;;14.50;14.00;;;20.80;56.60;;;;;;5052378;28;20503;-53
2023/03/19 02:55:20;;;;;;;13.50;13.10;;;20.80;56.60;;;;;;5052663;28;20487;-51
2023/03/19 02:57:47;;;;;;;13.87;13.47;;;20.80;56.60;;;;;;5052243;28;20444;-52
2023/03/19 03:00:16;;;;;;;13.73;13.33;;;20.80;56.60;;;;;;5052553;28;20878;-52
2023/03/19 03:02:44;;;;;;;13.47;13.07;;;20.80;56.60;;;;;;5052320;28;20854;-53
2023/03/19 03:05:12;;;;;;;14.03;13.63;;;20.80;56.60;;;;;;5052346;28;20879;-51
2023/03/19 03:07:39;;;;;;;13.03;12.73;;;20.80;56.60;;;;;;5051981;28;20480;-51
2023/03/19 03:10:07;;;;;;;13.70;13.27;;;20.80;56.60;;;;;;5052314;28;20459;-51
2023/03/19 03:12:34;;;;;;;14.97;14.57;;;20.80;56.60;;;;;;5052177;28;20897;-51
2023/03/19 03:15:01;;;;;;;13.60;13.20;;;20.80;56.50;;;;;;5052146;28;20524;-51
2023/03/19 03:17:28;;;;;;;13.80;13.40;;;20.80;56.60;;;;;;5051917;28;20511;-53
2023/03/19 03:19:56;;;;;;;13.93;13.53;;;20.80;56.60;;;;;;5052139;28;20995;-55
2023/03/19 03:22:23;;;;;;;13.80;13.40;;;20.70;56.60;;;;;;5052390;28;20559;-57
2023/03/19 03:24:50;;;;;;;14.10;13.70;;;20.70;56.50;;;;;;5052227;28;20480;-51
2023/03/19 03:27:17;;;;;;;14.80;14.37;;;20.80;56.60;;;;;;5051786;28;20487;-50
2023/03/19 03:29:44;;;;;;;13.33;12.93;;;20.70;56.50;;;;;;5051957;28;20535;-53
2023/03/19 03:32:11;;;;;;;13.77;13.30;;;20.70;56.50;;;;;;5051748;28;20784;-50
2023/03/19 03:34:38;;;;;;;13.43;13.03;;;20.70;56.40;;;;;;5051907;28;20847;-50
2023/03/19 03:37:06;;;;;;;13.60;13.20;;;20.70;56.50;;;;;;5051426;28;20448;-50
2023/03/19 03:39:33;;;;;;;13.10;12.70;;;20.70;56.40;;;;;;5051808;28;21013;-50
2023/03/19 03:42:00;;;;;;;12.87;12.47;;;20.70;56.40;;;;;;5051998;28;20914;-52
2023/03/19 03:44:27;;;;;;;13.37;12.97;;;20.70;56.40;;;;;;5052076;28;20495;-50
2023/03/19 03:46:54;;;;;;;13.60;13.20;;;20.70;56.40;;;;;;5051629;28;20527;-51
2023/03/19 03:49:21;;;;;;;13.47;13.07;;;20.70;56.30;;;;;;5051844;28;20448;-50
2023/03/19 03:51:48;;;;;;;13.33;12.93;;;20.70;56.30;;;;;;5051922;28;20744;-52
2023/03/19 03:54:16;;;;;;;13.60;13.20;;;20.70;56.40;;;;;;5051525;28;20542;-50
2023/03/19 03:56:43;;;;;;;13.20;12.80;;;20.70;56.40;;;;;;5051913;28;20499;-50
2023/03/19 03:59:10;;;;;;;13.20;12.87;;;20.70;56.30;;;;;;5051413;28;20476;-50
2023/03/19 04:01:37;;;;;;;14.83;14.37;;;20.70;56.30;;;;;;5052146;28;20480;-58
2023/03/19 04:04:04;;;;;;;14.17;13.67;;;20.70;56.30;;;;;;5051409;28;20531;-52
2023/03/19 04:06:31;;;;;;;13.93;13.53;;;20.70;56.30;;;;;;5051323;28;20889;-58
2023/03/19 04:08:57;;;;;;;13.77;13.37;;;20.70;56.40;;;;;;5051237;28;20444;-56
2023/03/19 04:11:26;;;;;;;12.90;12.50;;;20.70;56.40;;;;;;5051446;28;20538;-55
2023/03/19 04:13:55;;;;;;;13.40;13.00;;;20.70;56.40;;;;;;5052363;28;20854;-53
2023/03/19 04:16:22;;;;;;;13.93;13.53;;;20.70;56.30;;;;;;5051245;28;20479;-51
2023/03/19 04:18:49;;;;;;;12.87;12.57;;;20.60;56.30;;;;;;5051189;28;20480;-55
2023/03/19 04:21:16;;;;;;;13.33;13.03;;;20.70;56.40;;;;;;5051563;28;20997;-51
2023/03/19 04:23:43;;;;;;;13.43;12.93;;;20.70;56.40;;;;;;5051455;28;20499;-54
2023/03/19 04:26:11;;;;;;;13.30;12.90;;;20.70;56.40;;;;;;5051061;28;20476;-50
2023/03/19 04:28:39;;;;;;;12.90;12.60;;;20.60;56.30;;;;;;5051104;28;20506;-51
2023/03/19 04:31:08;;;;;;;12.60;12.30;;;20.70;56.50;;;;;;5051308;28;20476;-50
2023/03/19 04:33:35;;;;;;;13.90;13.50;;;20.60;56.40;;;;;;5051115;28;20508;-50
2023/03/19 04:36:03;;;;;;;13.63;13.23;;;20.60;56.60;;;;;;5051021;28;20942;-50
2023/03/19 04:38:30;;;;;;;13.80;13.40;;;20.70;56.40;;;;;;5051060;28;20446;-52
2023/03/19 04:40:57;;;;;;;13.17;12.77;;;20.70;56.40;;;;;;5051055;28;20452;-51
2023/03/19 04:43:25;;;;;;;13.13;12.77;;;20.60;56.40;;;;;;5051225;28;20553;-51
2023/03/19 04:45:53;;;;;;;13.53;13.10;;;20.60;56.40;;;;;;5051282;28;20905;-50
2023/03/19 04:48:20;;;;;;;13.37;12.97;;;20.60;56.40;;;;;;5051003;28;20480;-52
2023/03/19 04:50:50;;;;;;;13.17;12.77;;;20.60;56.40;;;;;;5051417;28;20452;-50
2023/03/19 04:53:19;;;;;;;13.27;12.87;;;20.60;56.30;;;;;;5051068;28;20464;-50
2023/03/19 04:55:46;;;;;;;12.77;12.43;;;20.60;56.30;;;;;;5051295;28;20979;-50
2023/03/19 04:58:13;;;;;;;12.93;12.53;;;20.60;56.30;;;;;;5051029;28;20463;-51
2023/03/19 05:00:40;;;;;;;13.53;13.23;;;20.60;56.30;;;;;;5051482;28;20483;-51
2023/03/19 05:03:08;;;;;;;13.07;12.70;;;20.60;56.30;;;;;;5050666;28;20571;-50
2023/03/19 05:05:35;;;;;;;12.93;12.63;;;20.60;56.30;;;;;;5051233;28;20539;-50
2023/03/19 05:08:02;;;;;;;13.60;13.20;;;20.60;56.30;;;;;;5054282;28;20917;-52
2023/03/19 05:10:29;;;;;;;14.33;13.93;;;20.60;56.50;;;;;;5054837;28;20456;-52
2023/03/19 05:12:56;;;;;;;13.40;12.90;;;20.60;56.30;;;;;;5054368;28;20479;-51
2023/03/19 05:15:22;;;;;;;13.10;12.80;;;20.60;56.20;;;;;;5054670;28;20535;-51
2023/03/19 05:17:50;;;;;;;12.80;12.40;;;20.60;56.20;;;;;;5054481;28;20531;-50
2023/03/19 05:20:18;;;;;;;13.23;12.83;;;20.60;56.30;;;;;;5054377;28;20480;-55
2023/03/19 05:22:46;;;;;;;12.50;12.20;;;20.60;56.30;;;;;;5054021;28;20531;-51
2023/03/19 05:25:13;;;;;;;12.47;12.17;;;20.60;56.30;;;;;;5043174;28;20449;-50
2023/03/19 05:27:40;;;;;;;12.83;12.43;;;20.60;56.20;;;;;;5054333;28;20874;-50
2023/03/19 05:30:08;;;;;;;12.90;12.50;;;20.60;56.20;;;;;;5054149;28;20479;-50
2023/03/19 05:32:36;;;;;;;12.33;11.93;;;20.60;56.20;;;;;;5054034;28;20548;-51
2023/03/19 05:35:03;;;;;;;12.70;12.40;;;20.60;56.10;;;;;;5054227;28;20440;-54
2023/03/19 05:37:32;;;;;;;12.87;12.57;;;20.60;56.20;;;;;;5054057;28;20452;-53
2023/03/19 05:39:59;;;;;;;13.27;12.97;;;20.60;56.20;;;;;;5054060;28;20440;-53
2023/03/19 05:42:26;;;;;;;12.17;11.87;;;20.60;56.20;;;;;;5053768;28;20978;-50
2023/03/19 05:44:53;;;;;;;12.90;12.50;;;20.60;56.20;;;;;;5054014;28;20874;-50
2023/03/19 05:47:20;;;;;;;12.77;12.37;;;20.60;56.10;;;;;;5053950;28;20506;-50
2023/03/19 05:49:47;;;;;;;12.60;12.30;;;20.60;56.10;;;;;;5054151;28;20564;-51
2023/03/19 05:52:14;;;;;;;13.43;12.93;;;20.60;56.10;;;;;;5053637;28;20540;-51
2023/03/19 05:54:43;;;;;;;12.60;12.30;;;20.60;56.10;;;;;;5053837;28;20531;-53
2023/03/19 05:57:10;;;;;;;14.17;13.77;;;20.60;56.10;;;;;;5053682;28;20873;-51
2023/03/19 05:59:37;;;;;;;12.90;12.50;;;20.50;56.10;;;;;;5053789;28;20445;-50
2023/03/19 06:02:03;;;;;;;12.73;12.43;;;20.60;56.10;;;;;;5053458;28;20508;-52
2023/03/19 06:04:30;;;;;;;12.10;11.80;;;20.50;56.10;;;;;;5053828;28;20482;-50
2023/03/19 06:06:57;;;;;;;12.50;12.00;;;20.50;56.00;;;;;;5053649;28;20487;-50
2023/03/19 06:09:25;;;;;;;11.77;11.47;;;20.50;56.00;;;;;;5053455;28;20536;-50
2023/03/19 06:11:53;;;;;;;11.97;11.67;;;20.50;56.00;;;;;;5053401;28;20464;-50
2023/03/19 06:14:20;;;;;;;12.60;12.20;;;20.50;55.90;;;;;;5053999;28;21032;-55
2023/03/19 06:16:46;;;;;;;13.30;12.90;;;20.50;56.10;;;;;;5054511;28;20455;-52
2023/03/19 06:19:14;;;;;;;12.60;12.30;;;20.60;57.10;;;;;;5052744;28;20456;-51
2023/03/19 06:21:41;;;;;;;13.43;13.13;;;20.60;57.00;;;;;;5053961;28;20480;-55
2023/03/19 06:24:08;;;;;;;13.10;12.80;;;20.60;57.30;;;;;;5053657;28;20542;-51
2023/03/19 06:26:36;;;;;;;13.23;12.83;;;20.70;57.30;;;;;;5053263;28;20851;-53
2023/03/19 06:29:04;;;;;;;12.77;12.47;;;20.70;57.70;;;;;;5053122;28;20441;-51
2023/03/19 06:31:31;;;;;;;13.30;13.00;;;20.70;57.70;;;;;;5052540;28;20448;-51
2023/03/19 06:33:58;;;;;;;13.33;13.03;;;20.80;57.70;;;;;;5053000;28;20519;-57
2023/03/19 06:36:26;;;;;;;13.30;13.00;;;20.80;57.70;;;;;;5052968;28;20937;-58
2023/03/19 06:38:52;;;;;;;13.20;12.80;;;20.80;57.60;;;;;;5052746;28;20448;-58
2023/03/19 06:41:20;;;;;;;13.30;12.90;;;20.90;57.60;;;;;;5052412;28;20460;-57
2023/03/19 06:43:47;;;;;;;13.50;13.10;;;20.90;57.50;;;;;;5052835;28;21048;-57
2023/03/19 06:46:15;;;;;;;13.43;13.07;;;20.90;57.40;;;;;;5053196;28;20615;-57
2023/03/19 06:48:42;;;;;;;13.87;13.37;;;21.00;57.50;;;;;;5052775;28;20535;-58
2023/03/19 06:51:09;;;;;;;13.33;13.00;;;21.00;57.50;;;;;;5052683;28;20503;-57
2023/03/19 06:53:35;;;;;;;14.13;13.73;;;21.00;57.50;;;;;;5053258;28;20496;-56
2023/03/19 06:56:03;;;;;;;13.97;13.47;;;21.10;57.60;;;;;;5052542;28;20811;-53
2023/03/19 06:58:29;;;;;;;15.60;15.10;;;21.10;57.60;;;;;;5052586;28;20471;-57
2023/03/19 07:00:56;;;;;;;14.70;14.30;;;21.20;57.80;;;;;;5052447;28;20535;-52
2023/03/19 07:03:25;;;;;;;14.60;14.20;;;21.20;58.00;;;;;;5052204;28;21012;-53
2023/03/19 07:05:52;;;;;;;14.30;13.90;;;21.20;57.70;;;;;;5052650;28;20531;-52
2023/03/19 07:08:19;;;;;;;14.97;14.57;;;21.20;57.70;;;;;;5052613;28;20959;-52
2023/03/19 07:10:46;;;;;;;14.37;13.97;;;21.20;57.60;;;;;;5051803;28;20486;-51
2023/03/19 07:13:13;;;;;;;14.30;13.90;;;21.30;57.50;;;;;;5052151;28;20492;-52
2023/03/19 07:15:40;;;;;;;14.63;14.13;;;21.30;57.50;;;;;;5052870;28;20926;-53
2023/03/19 07:18:07;;;;;;;13.73;13.43;;;21.30;57.50;;;;;;5052539;28;20950;-52
2023/03/19 07:20:35;;;;;;;14.47;14.07;;;21.40;57.80;;;;;;5051375;28;21022;-54
2023/03/19 07:23:02;;;;;;;13.40;13.10;;;21.40;57.40;;;;;;5052339;28;20490;-52
2023/03/19 07:25:29;;;;;;;13.03;12.73;;;21.40;57.40;;;;;;5052001;28;20543;-53
2023/03/19 07:27:56;;;;;;;13.40;12.90;;;21.40;57.40;;;;;;5051833;28;20453;-56
2023/03/19 07:30:23;;;;;;;14.17;13.77;;;21.40;57.80;;;;;;5045090;28;20488;-52
2023/03/19 07:32:50;;;;;;;12.23;11.90;;;21.50;57.30;;;;;;5031801;28;20456;-56
2023/03/19 07:35:17;;;;;;;13.40;13.00;;;21.50;57.30;;;;;;5032082;28;20531;-50
2023/03/19 07:37:45;;;;;;;15.00;14.50;;;21.50;57.30;;;;;;5032022;28;20524;-59
2023/03/19 07:40:12;;;;;;;13.53;13.13;;;21.50;57.20;;;;;;5036568;28;20543;-59
2023/03/19 07:42:39;;;;;;;13.70;13.30;;;21.60;57.40;;;;;;5051508;28;20678;-59
2023/03/19 07:45:08;;;;;;;12.43;12.13;;;21.60;57.40;;;;;;5051727;28;20448;-53
2023/03/19 07:47:35;;;;;;;13.13;12.60;;;21.60;57.10;;;;;;5051744;28;20467;-55
2023/03/19 07:50:02;;;;;;;11.73;11.43;;;21.60;57.40;;;;;;5050438;28;20980;-58
2023/03/19 07:52:29;;;;;;;13.47;13.17;;;21.50;57.60;;;;;;5051795;28;20260;-56
2023/03/19 07:54:58;;;;;;;13.67;13.27;;;21.60;57.40;;;;;;5067927;22;20527;-65
2023/03/19 07:57:25;;;;;;;14.00;13.50;;;21.70;57.10;;;;;;5034417;28;20489;-64
2023/03/19 07:59:52;;;;;;;12.40;12.10;;;21.70;57.10;;;;;;5033733;28;20806;-65
2023/03/19 08:02:19;;;;;;;13.50;13.00;;;21.70;57.10;;;;;;5033869;28;20892;-69
2023/03/19 08:04:46;;;;;;;13.70;13.20;;;21.60;57.10;;;;;;5034497;28;20497;-66
2023/03/19 08:07:14;;;;;;;15.17;14.57;;;21.60;57.50;;;;;;5033073;28;20930;-65
2023/03/19 08:09:41;;;;;;;14.70;14.20;;;21.70;57.70;;;;;;5019539;28;20449;-66
2023/03/19 08:12:10;;;;;;;15.33;14.73;;;21.60;57.70;;;;;;5011875;28;20517;-65
2023/03/19 08:14:37;;;;;;;15.73;14.90;;;21.60;57.20;;;;;;5011829;28;20512;-66
2023/03/19 08:17:04;;;;;;;15.50;15.00;;;21.60;57.10;;;;;;5016317;28;20488;-66
2023/03/19 08:19:31;;;;;;;15.70;15.20;;;21.50;57.30;;;;;;5031562;28;20852;-66
2023/03/19 08:21:58;;;;;;;15.57;14.97;;;21.50;57.40;;;;;;5031432;28;20455;-66
2023/03/19 08:24:25;;;;;;;16.13;15.70;;;21.50;57.50;;;;;;5019925;28;20532;-66
2023/03/19 08:26:52;;;;;;;15.47;14.87;;;21.50;57.60;;;;;;5011625;28;20499;-67
2023/03/19 08:29:20;;;;;;;15.30;14.90;;;21.50;57.60;;;;;;5012948;28;20447;-61
2023/03/19 08:31:47;;;;;;;15.03;14.63;;;21.50;58.00;;;;;;5014764;28;20214;-66
2023/03/19 08:34:14;;;;;;;13.73;13.13;;;21.50;57.60;;;;;;5021511;28;20476;-66
2023/03/19 08:36:41;;;;;;;14.93;14.53;;;21.50;58.00;;;;;;5034168;28;20256;-65
2023/03/19 08:39:08;;;;;;;15.50;15.00;;;21.60;58.00;;;;;;5032657;28;20483;-65
2023/03/19 08:41:35;;;;;;;16.30;15.80;;;21.70;57.80;;;;;;5033649;28;20480;-65
2023/03/19 08:44:02;;;;;;;16.93;16.10;;;21.70;57.70;;;;;;5028049;28;20478;-66
2023/03/19 08:46:30;;;;;;;8.70;8.50;;;21.70;57.90;;;;;;5015947;28;20481;-64
2023/03/19 08:48:57;;;;;;;10.47;10.17;;;21.70;58.00;;;;;;5016854;28;20215;-65
2023/03/19 08:51:27;;;;;;;11.30;11.00;;;21.70;57.90;;;;;;5016744;28;20473;-63
2023/03/19 08:53:54;;;;;;;10.90;10.60;;;21.70;57.80;;;;;;5035702;28;20942;-65
2023/03/19 08:56:21;;;;;;;11.10;10.80;;;21.80;57.90;;;;;;5036941;28;20533;-63
2023/03/19 08:58:48;;;;;;;11.40;11.10;;;21.70;57.70;;;;;;5036035;28;20792;-63
2023/03/19 09:01:15;;;;;;;11.80;11.50;;;21.70;57.80;;;;;;5034696;28;20487;-64
2023/03/19 09:03:44;;;;;;;9.70;9.40;;;21.70;57.90;;;;;;5035015;28;20464;-66
2023/03/19 09:06:14;;;;;;;11.40;11.10;;;21.70;58.30;;;;;;5036702;28;20227;-62
2023/03/19 09:08:41;;;;;;;12.07;11.67;;;21.80;58.30;;;;;;5035923;28;20456;-61
2023/03/19 09:11:10;;;;;;;11.50;11.00;;;21.80;58.00;;;;;;5025214;28;20544;-65
2023/03/19 09:13:37;;;;;;;11.87;11.57;;;21.80;57.80;;;;;;5016051;28;20458;-57
2023/03/19 09:16:05;;;;;;;11.53;11.13;;;21.70;57.80;;;;;;5023847;28;20499;-58
2023/03/19 09:18:32;;;;;;;11.83;11.23;;;21.70;57.90;;;;;;5035922;28;20441;-62
2023/03/19 09:21:01;;;;;;;11.23;10.83;;;21.80;58.10;;;;;;5027012;28;20485;-60
2023/03/19 09:23:28;;;;;;;11.57;11.10;;;21.80;58.20;;;;;;5015891;28;20481;-68
2023/03/19 09:25:55;;;;;;;11.50;11.20;;;21.80;58.00;;;;;;5016313;28;20494;-64
2023/03/19 09:28:22;;;;;;;10.77;10.10;;;21.80;58.00;;;;;;5015367;28;20818;-62
2023/03/19 09:30:50;;;;;;;11.00;10.60;;;21.70;58.10;;;;;;5016148;28;20880;-60
2023/03/19 09:33:18;;;;;;;11.33;11.03;;;21.80;58.00;;;;;;5015588;28;20453;-59
2023/03/19 09:35:49;;;;;;;9.27;8.97;;;21.80;58.00;;;;;;5014943;28;20470;-58
2023/03/19 09:38:18;;;;;;;9.70;9.40;;;21.70;58.20;;;;;;5014337;28;20539;-65
2023/03/19 09:40:48;;;;;;;11.37;11.07;;;21.80;58.20;;;;;;5016423;28;20246;-63
2023/03/19 09:43:35;;;;;;;11.20;10.90;;;21.90;58.00;;;;;;5014504;28;20482;-62
2023/03/19 09:46:08;;;;;;;11.20;10.90;;;21.90;57.70;;;;;;5014239;28;20804;-61
2023/03/19 09:48:40;;;;;;;10.60;10.30;;;21.90;57.70;;;;;;5013967;28;20533;-64
2023/03/19 09:51:23;;;;;;;10.27;9.97;;;21.90;57.60;;;;;;5020436;28;20450;-65
2023/03/19 09:53:56;;;;;;;10.57;10.27;;;21.90;57.80;;;;;;5034942;28;20481;-64
2023/03/19 09:56:24;;;;;;;10.43;10.10;;;21.90;57.90;;;;;;5036302;28;20519;-61
2023/03/19 09:58:51;;;;;;;11.10;10.80;;;21.80;58.00;;;;;;5035427;28;20488;-64
2023/03/19 10:01:25;;;;;;;10.90;10.70;;;21.80;58.00;;;;;;5030420;28;20496;-61
2023/03/19 10:04:27;;;;;;;10.10;9.90;;;21.80;57.90;;;;;;5023764;28;20509;-62
2023/03/19 10:07:05;;;;;;;10.03;9.73;;;21.80;58.00;;;;;;5016071;28;20969;-63
2023/03/19 10:09:46;;;;;;;10.80;10.50;;;21.80;57.80;;;;;;5015829;28;20442;-63
2023/03/19 10:12:23;;;;;;;10.40;10.10;;;21.80;57.90;;;;;;5029308;28;20492;-61
2023/03/19 10:15:20;;;;;;;10.97;10.67;;;21.90;58.10;;;;;;5035762;28;20853;-62
2023/03/19 10:17:55;;;;;;;10.90;10.63;;;21.80;57.80;;;;;;5035227;28;20504;-63
2023/03/19 10:20:30;;;;;;;10.20;9.90;;;21.90;58.00;;;;;;5035567;28;20480;-65
2023/03/19 10:23:05;;;;;;;10.17;9.97;;;21.90;57.80;;;;;;5032416;28;20447;-64
2023/03/19 10:25:33;;;;;;;11.40;11.00;;;21.90;57.80;;;;;;5015975;28;20465;-60
2023/03/19 10:28:12;;;;;;;10.70;10.40;;;21.90;57.90;;;;;;5015432;28;20449;-62
2023/03/19 10:30:40;;;;;;;10.33;10.13;;;21.90;57.90;;;;;;5015814;28;20442;-60
2023/03/19 10:33:17;;;;;;;11.07;10.77;;;21.90;57.80;;;;;;5015357;28;20469;-60
2023/03/19 10:35:45;;;;;;;10.63;10.43;;;21.90;57.80;;;;;;5024355;28;20488;-59
2023/03/19 10:38:21;;;;;;;10.67;10.37;;;21.90;57.70;;;;;;5033735;28;20806;-60
2023/03/19 10:41:03;;;;;;;10.50;10.20;;;21.90;57.70;;;;;;5032960;28;20444;-63
2023/03/19 10:43:33;;;;;;;11.10;10.60;;;21.90;57.70;;;;;;5032815;28;20826;-59
2023/03/19 10:46:00;;;;;;;10.30;10.10;;;21.90;58.00;;;;;;5032876;28;20501;-61
2023/03/19 10:48:28;;;;;;;10.33;10.03;;;21.80;57.90;;;;;;5030289;28;20532;-59
2023/03/19 10:50:58;;;;;;;11.17;10.90;;;21.80;57.90;;;;;;5015857;28;20450;-60
2023/03/19 10:53:33;;;;;;;10.60;10.40;;;21.80;57.50;;;;;;5013258;28;20446;-62
2023/03/19 10:56:07;;;;;;;10.40;9.90;;;21.80;57.40;;;;;;5013133;28;20477;-59
2023/03/19 10:58:35;;;;;;;10.57;10.30;;;21.80;57.30;;;;;;5024724;28;20493;-63
2023/03/19 11:01:05;;;;;;;10.27;10.00;;;21.80;57.30;;;;;;5032479;28;20963;-60
2023/03/19 11:03:35;;;;;;;12.13;11.50;;;21.90;57.30;;;;;;5031784;28;21015;-63
2023/03/19 11:06:14;;;;;;;11.37;10.77;;;21.90;57.50;;;;;;5032108;28;20466;-63
2023/03/19 11:08:42;;;;;;;11.83;11.13;;;21.90;58.30;;;;;;5032026;28;21002;-59
2023/03/19 11:11:23;;;;;;;13.07;12.27;;;22.00;59.40;;;;;;5030813;28;20453;-63
2023/03/19 11:13:50;;;;;;;13.03;12.03;;;22.00;61.60;;;;;;5032198;28;20476;-59
2023/03/19 11:16:17;;;;;;;13.60;12.47;;;22.00;65.30;;;;;;5032365;28;21014;-57
2023/03/19 11:18:47;;;;;;;14.30;12.80;;;22.00;67.90;;;;;;5020110;28;20489;-64
2023/03/19 11:21:23;;;;;;;14.33;12.80;;;22.00;70.40;;;;;;5019899;28;20484;-60
2023/03/19 11:23:53;;;;;;;13.83;12.43;;;22.00;71.60;;;;;;5032227;28;20512;-59
2023/03/19 11:26:23;;;;;;;13.83;12.43;;;22.00;73.30;;;;;;5032139;28;20527;-59
2023/03/19 11:28:51;;;;;;;13.00;12.10;;;22.00;72.60;;;;;;5026808;28;20485;-60
2023/03/19 11:31:25;;;;;;;13.43;12.33;;;22.00;72.40;;;;;;5015524;28;20478;-62
2023/03/19 11:34:16;;;;;;;14.13;13.10;;;22.00;72.10;;;;;;5011998;28;20480;-64
2023/03/19 11:36:51;;;;;;;13.60;12.37;;;22.00;70.00;;;;;;5012527;28;20885;-64
2023/03/19 11:39:27;;;;;;;13.77;12.57;;;22.00;69.00;;;;;;5015820;28;20529;-64
2023/03/19 11:42:10;;;;;;;12.90;12.00;;;22.00;68.70;;;;;;5012022;28;20453;-64
2023/03/19 11:44:49;;;;;;;12.90;11.60;;;22.00;68.70;;;;;;5012193;28;20564;-60
2023/03/19 11:47:29;;;;;;;12.40;11.10;;;22.00;68.90;;;;;;5010747;28;20537;-61
2023/03/19 11:50:07;;;;;;;15.07;13.77;;;22.00;70.80;;;;;;5013265;28;20249;-60
2023/03/19 11:52:47;;;;;;;13.63;12.63;;;22.10;69.20;;;;;;5031638;28;20476;-62
2023/03/19 11:55:21;;;;;;;13.03;11.97;;;22.10;68.10;;;;;;5031515;28;20848;-59
2023/03/19 11:58:14;;;;;;;12.43;11.50;;;22.10;67.30;;;;;;5031737;28;20992;-64
2023/03/19 12:00:45;;;;;;;12.57;11.97;;;22.10;67.30;;;;;;5031671;28;20861;-63
2023/03/19 12:03:49;;;;;;;13.03;12.43;;;22.10;67.20;;;;;;5021821;28;20504;-61
2023/03/19 12:06:28;;;;;;;13.93;12.90;;;22.10;67.30;;;;;;5018750;28;20470;-61
2023/03/19 12:09:02;;;;;;;14.07;12.60;;;22.10;67.80;;;;;;5012838;28;20495;-61
2023/03/19 12:11:38;;;;;;;13.73;12.63;;;22.10;67.50;;;;;;5011950;28;20478;-63
2023/03/19 12:14:29;;;;;;;12.07;11.53;;;22.10;66.80;;;;;;5027561;28;20879;-61
2023/03/19 12:17:06;;;;;;;12.90;12.30;;;22.00;66.70;;;;;;5035144;28;20451;-61
2023/03/19 12:19:49;;;;;;;13.60;12.80;;;22.00;66.60;;;;;;5035460;28;20866;-62
2023/03/19 12:22:25;;;;;;;13.90;13.03;;;22.00;66.80;;;;;;5021379;28;20815;-62
2023/03/19 12:25:06;;;;;;;12.97;12.17;;;22.00;67.30;;;;;;4995768;28;21031;-62
2023/03/19 12:27:40;;;;;;;12.80;12.00;;;22.00;67.20;;;;;;5006250;28;20947;-56
2023/03/19 12:30:16;;;;;;;12.20;11.70;;;21.90;67.70;;;;;;5015801;28;20453;-62
2023/03/19 12:32:56;;;;;;;11.70;11.07;;;21.90;67.10;;;;;;5015746;28;20446;-63
2023/03/19 12:35:29;;;;;;;13.77;12.53;;;21.80;66.70;;;;;;5015560;28;20528;-62
2023/03/19 12:38:03;;;;;;;13.80;12.37;;;21.80;66.40;;;;;;5015320;28;20469;-63
2023/03/19 12:40:35;;;;;;;12.27;11.80;;;21.80;65.90;;;;;;5015311;28;20442;-61